Time;durP1;ratioP1;P1;durP2;ratioP2;P2;SDS_P1;SDS_P2;PMS_P1;PMS_P2;Temp;Humidity;BMP_temperature;BMP_pressure;BME280_temperature;BME280_humidity;BME280_pressure;Samples;Min_cycle;Max_cycle;Signal;HPM_P1;HPM_P2
2021/12/19 00:00:33;;;;;;;3.90;2.30;;;;;;;-1.53;100.00;99774.22;1735789;82;21458;-77
2021/12/19 00:03:33;;;;;;;5.20;2.50;;;;;;;-1.53;100.00;99766.27;1735420;83;21044;-78
2021/12/19 00:10:57;;;;;;;4.77;2.27;;;;;;;-1.65;100.00;99743.21;1700320;84;21008;-77
2021/12/19 00:13:26;;;;;;;3.00;2.07;;;;;;;-1.73;100.00;99738.91;1735542;82;20959;-77
2021/12/19 00:15:54;;;;;;;3.50;1.80;;;;;;;-1.77;100.00;99740.91;1735522;82;20948;-77
2021/12/19 00:18:20;;;;;;;3.67;2.27;;;;;;;-1.78;100.00;99738.35;1735365;83;21007;-77
2021/12/19 00:20:47;;;;;;;3.30;2.10;;;;;;;-1.84;100.00;99732.98;1700192;84;20960;-76
2021/12/19 00:23:14;;;;;;;2.73;2.10;;;;;;;-1.87;100.00;99725.70;1735474;82;21422;-78
2021/12/19 00:25:41;;;;;;;2.53;2.10;;;;;;;-1.87;100.00;99718.59;1735587;83;21000;-77
2021/12/19 00:28:14;;;;;;;3.00;1.90;;;;;;;-1.87;100.00;99719.08;1735812;83;20983;-78
2021/12/19 00:30:42;;;;;;;4.20;2.20;;;;;;;-1.95;100.00;99711.60;1735605;82;20990;-77
2021/12/19 00:33:10;;;;;;;5.60;2.47;;;;;;;-2.02;100.00;99711.63;1735473;82;21031;-78
2021/12/19 00:35:37;;;;;;;2.93;2.40;;;;;;;-2.02;100.00;99702.35;1740858;82;21440;-77
2021/12/19 00:38:04;;;;;;;5.37;2.93;;;;;;;-2.02;100.00;99695.28;1749378;82;21015;-77
2021/12/19 00:40:32;;;;;;;5.00;2.53;;;;;;;-2.02;100.00;99695.28;1723438;82;20975;-78
2021/12/19 00:43:06;;;;;;;4.20;2.53;;;;;;;-2.02;100.00;99680.70;1749439;82;20991;-78
2021/12/19 00:45:40;;;;;;;9.20;3.42;;;;;;;-2.05;100.00;99673.40;1749312;82;21026;-76
2021/12/19 00:48:08;;;;;;;9.00;3.07;;;;;;;-2.07;100.00;99668.23;1749150;82;20963;-77
2021/12/19 00:50:36;;;;;;;6.87;3.30;;;;;;;-2.06;100.00;99659.80;1749092;82;21031;-78
2021/12/19 00:53:04;;;;;;;4.53;2.60;;;;;;;-2.07;100.00;99652.78;1749029;82;21030;-77
2021/12/19 00:55:31;;;;;;;11.60;3.73;;;;;;;-2.07;100.00;99643.51;1749064;82;21079;-77
2021/12/19 00:57:58;;;;;;;5.47;2.83;;;;;;;-2.05;100.00;99650.42;1749115;82;21002;-79
2021/12/19 01:00:28;;;;;;;5.27;2.90;;;;;;;-2.04;100.00;99641.51;1749121;82;20992;-77
2021/12/19 01:02:58;;;;;;;5.27;3.37;;;;;;;-2.03;100.00;99648.52;1749196;82;20995;-75
2021/12/19 01:05:24;;;;;;;7.40;3.83;;;;;;;-2.02;100.00;99640.96;1749109;82;21002;-77
2021/12/19 01:07:52;;;;;;;6.40;3.60;;;;;;;-2.01;100.00;99637.83;1748950;82;21497;-77
2021/12/19 01:10:19;;;;;;;6.67;3.17;;;;;;;-1.98;100.00;99634.50;1748927;82;20999;-77
2021/12/19 01:12:46;;;;;;;7.37;2.90;;;;;;;-1.95;100.00;99629.45;1748744;82;21042;-77
2021/12/19 01:15:16;;;;;;;3.40;2.33;;;;;;;-1.95;100.00;99631.66;1748748;82;20999;-77
2021/12/19 01:17:43;;;;;;;4.60;2.47;;;;;;;-1.95;100.00;99629.00;1748893;82;21058;-78
2021/12/19 01:20:15;;;;;;;4.83;2.97;;;;;;;-1.92;100.00;99622.15;1748895;82;21042;-77
2021/12/19 01:22:43;;;;;;;3.75;2.70;;;;;;;-1.88;100.00;99615.33;1713229;83;21537;-77
2021/12/19 01:25:10;;;;;;;5.20;3.17;;;;;;;-1.88;100.00;99604.25;1689589;84;21478;-77
2021/12/19 01:27:43;;;;;;;3.07;2.37;;;;;;;-1.92;100.00;99601.44;1681382;84;21001;-77
2021/12/19 01:30:11;;;;;;;3.80;2.40;;;;;;;-1.90;100.00;99598.20;1680944;85;21036;-77
2021/12/19 01:32:38;;;;;;;2.30;1.97;;;;;;;-1.92;100.00;99598.78;1681018;85;21029;-77
2021/12/19 01:35:07;;;;;;;6.07;2.50;;;;;;;-1.90;100.00;99596.87;1681083;85;20993;-78
2021/12/19 01:37:34;;;;;;;4.67;2.40;;;;;;;-1.89;100.00;99596.39;1681217;85;20997;-78
2021/12/19 01:40:02;;;;;;;2.87;1.83;;;;;;;-1.92;100.00;99596.13;1681209;85;21040;-75
2021/12/19 01:42:36;;;;;;;2.87;1.87;;;;;;;-1.91;100.00;99587.25;1681521;85;21472;-78
2021/12/19 01:45:09;;;;;;;2.17;1.93;;;;;;;-1.88;100.00;99593.64;1681251;85;21057;-78
2021/12/19 01:47:36;;;;;;;3.37;1.92;;;;;;;-1.87;100.00;99588.73;1681208;85;21025;-77
2021/12/19 01:50:05;;;;;;;3.17;2.07;;;;;;;-1.88;100.00;99582.20;1680993;85;21085;-76
2021/12/19 01:52:32;;;;;;;2.00;1.80;;;;;;;-1.88;100.00;99576.42;1681170;84;21515;-78
2021/12/19 01:55:06;;;;;;;3.53;2.00;;;;;;;-1.87;100.00;99571.98;1681264;85;21048;-78
2021/12/19 01:57:34;;;;;;;2.33;2.13;;;;;;;-1.85;100.00;99569.59;1681078;85;21016;-78
2021/12/19 02:00:01;;;;;;;1.87;1.60;;;;;;;-1.84;100.00;99569.98;1681279;85;21013;-77
2021/12/19 02:02:28;;;;;;;2.00;1.80;;;;;;;-1.85;100.00;99566.94;1681051;85;20981;-77
2021/12/19 02:04:54;;;;;;;2.43;2.17;;;;;;;-1.85;100.00;99566.94;1681037;85;21009;-76
2021/12/19 02:07:22;;;;;;;4.80;2.27;;;;;;;-1.87;100.00;99561.39;1681226;85;21000;-77
2021/12/19 02:09:49;;;;;;;3.07;2.20;;;;;;;-1.87;100.00;99564.04;1681142;85;21017;-77
2021/12/19 02:12:15;;;;;;;3.53;2.33;;;;;;;-1.88;100.00;99558.35;1681057;85;21505;-77
2021/12/19 02:14:43;;;;;;;2.60;2.00;;;;;;;-1.92;100.00;99561.69;1681066;85;20969;-77
2021/12/19 02:17:10;;;;;;;3.73;2.00;;;;;;;-1.91;100.00;99566.89;1681137;85;21027;-78
2021/12/19 02:19:37;;;;;;;2.33;1.93;;;;;;;-1.89;100.00;99556.19;1717672;82;20959;-78
2021/12/19 02:22:04;;;;;;;3.73;2.03;;;;;;;-1.88;100.00;99549.91;1742749;82;21018;-78
2021/12/19 02:24:34;;;;;;;2.40;2.20;;;;;;;-1.89;100.00;99549.56;1743136;82;20998;-78
2021/12/19 02:27:00;;;;;;;2.30;2.10;;;;;;;-1.88;100.00;99545.10;1710431;82;21413;-76
2021/12/19 02:29:28;;;;;;;3.37;2.40;;;;;;;-1.89;100.00;99528.81;1742937;82;21003;-77
2021/12/19 02:31:54;;;;;;;3.40;2.27;;;;;;;-1.89;100.00;99527.48;1742814;82;21461;-77
2021/12/19 02:34:26;;;;;;;2.50;2.30;;;;;;;-1.88;100.00;99525.23;1742765;82;21115;-77
2021/12/19 02:37:04;;;;;;;2.30;2.10;;;;;;;-1.88;100.00;99526.55;1743001;82;20975;-78
2021/12/19 02:50:27;;;;;;;2.93;2.47;;;;;;;-1.85;100.00;99519.23;1651937;87;21015;-77
2021/12/19 02:52:54;;;;;;;3.40;3.10;;;;;;;-1.86;100.00;99520.21;1651998;86;21698;-77
2021/12/19 02:55:21;;;;;;;3.57;3.27;;;;;;;-1.86;100.00;99516.23;1652106;87;20988;-77
2021/12/19 02:57:49;;;;;;;3.80;3.27;;;;;;;-1.85;100.00;99518.40;1651957;87;21028;-78
2021/12/19 03:00:20;;;;;;;5.10;3.40;;;;;;;-1.84;100.00;99514.78;1652408;86;21537;-77
2021/12/19 03:02:47;;;;;;;5.70;3.97;;;;;;;-1.83;100.00;99509.86;1630826;87;21481;-78
2021/12/19 03:05:14;;;;;;;5.30;3.53;;;;;;;-1.83;100.00;99505.89;1652094;87;21028;-78
2021/12/19 03:07:43;;;;;;;5.27;3.70;;;;;;;-1.83;100.00;99489.98;1652137;87;21103;-78
2021/12/19 03:10:26;;;;;;;5.33;4.10;;;;;;;-1.87;100.00;99473.45;1652405;86;21004;-78
2021/12/19 03:18:10;;;;;;;5.93;4.07;;;;;;;-1.92;100.00;99462.31;1665516;86;21105;-78
2021/12/19 03:20:39;;;;;;;8.03;4.40;;;;;;;-1.91;100.00;99464.02;1698799;84;21018;-78
2021/12/19 03:23:07;;;;;;;6.10;4.53;;;;;;;-1.92;100.00;99459.66;1698755;84;21042;-76
2021/12/19 03:25:34;;;;;;;4.60;3.67;;;;;;;-1.94;100.00;99449.66;1698477;84;20954;-77
2021/12/19 03:28:03;;;;;;;5.60;4.00;;;;;;;-1.94;100.00;99437.73;1691301;85;21039;-76
2021/12/19 03:30:30;;;;;;;3.50;3.20;;;;;;;-1.95;100.00;99434.70;1694853;85;21508;-78
2021/12/19 03:32:57;;;;;;;5.33;3.60;;;;;;;-1.93;100.00;99420.85;1695786;85;21038;-77
2021/12/19 03:35:24;;;;;;;4.87;3.97;;;;;;;-1.92;100.00;99423.89;1695939;85;21019;-77
2021/12/19 03:37:52;;;;;;;5.33;3.63;;;;;;;-1.89;100.00;99422.81;1694924;85;21025;-78
2021/12/19 03:40:24;;;;;;;6.10;3.80;;;;;;;-1.87;100.00;99411.66;1694957;85;21006;-76
2021/12/19 03:42:53;;;;;;;4.40;3.60;;;;;;;-1.84;100.00;99402.14;1695318;85;21058;-76
2021/12/19 03:45:21;;;;;;;5.43;3.50;;;;;;;-1.86;100.00;99399.63;1696099;85;21018;-76
2021/12/19 03:47:48;;;;;;;4.27;3.60;;;;;;;-1.86;100.00;99396.98;1696122;85;21050;-77
2021/12/19 03:50:20;;;;;;;4.50;3.60;;;;;;;-1.85;100.00;99386.73;1695509;85;21043;-76
2021/12/19 03:52:46;;;;;;;5.17;3.60;;;;;;;-1.84;100.00;99400.36;1694933;85;21007;-77
2021/12/19 03:55:14;;;;;;;6.40;3.90;;;;;;;-1.83;100.00;99400.71;1695069;85;21484;-79
2021/12/19 03:57:41;;;;;;;6.00;4.13;;;;;;;-1.82;100.00;99389.66;1696174;85;21031;-79
2021/12/19 04:00:11;;;;;;;5.40;3.70;;;;;;;-1.86;100.00;99396.98;1695895;85;21011;-77
2021/12/19 04:02:39;;;;;;;6.93;4.20;;;;;;;-1.86;100.00;99394.78;1662084;86;21510;-76
2021/12/19 04:05:06;;;;;;;6.70;4.37;;;;;;;-1.89;100.00;99394.98;1695627;85;21046;-77
2021/12/19 04:07:33;;;;;;;6.33;4.03;;;;;;;-1.89;100.00;99393.20;1695583;85;20994;-77
2021/12/19 04:10:01;;;;;;;6.97;4.50;;;;;;;-1.90;100.00;99388.85;1732824;82;21031;-77
2021/12/19 04:12:29;;;;;;;7.00;4.60;;;;;;;-1.90;100.00;99384.88;1744839;82;20999;-77
2021/12/19 04:15:03;;;;;;;9.23;5.67;;;;;;;-1.93;100.00;99385.95;1745272;82;20980;-78
2021/12/19 04:17:30;;;;;;;10.77;6.30;;;;;;;-1.92;100.00;99386.79;1744934;82;21079;-77
2021/12/19 04:19:57;;;;;;;9.93;6.03;;;;;;;-1.92;100.00;99385.47;1745019;82;21018;-79
2021/12/19 04:22:23;;;;;;;14.20;6.60;;;;;;;-1.90;100.00;99380.90;1745195;82;20991;-77
2021/12/19 04:24:50;;;;;;;10.50;6.23;;;;;;;-1.92;100.00;99366.43;1745357;82;21038;-77
2021/12/19 04:27:18;;;;;;;14.47;6.40;;;;;;;-1.96;100.00;99366.77;1737142;81;20995;-78
2021/12/19 04:29:45;;;;;;;12.40;6.10;;;;;;;-1.95;100.00;99362.70;1745599;81;20987;-77
2021/12/19 04:32:12;;;;;;;12.67;6.60;;;;;;;-1.98;100.00;99364.23;1745609;81;21022;-77
2021/12/19 04:34:39;;;;;;;10.17;6.27;;;;;;;-2.01;100.00;99357.81;1745745;81;21058;-77
2021/12/19 04:37:51;;;;;;;11.30;6.60;;;;;;;-2.00;100.00;99346.27;1742368;82;21560;-78
2021/12/19 04:43:25;;;;;;;11.00;6.13;;;;;;;-2.01;100.00;99339.27;1657935;86;21023;-77
2021/12/19 04:53:23;;;;;;;10.47;6.23;;;;;;;-2.02;100.00;99315.07;1639240;86;21030;-77
2021/12/19 05:00:51;;;;;;;10.00;5.30;;;;;;;-2.01;100.00;99304.82;1657983;86;21143;-78
2021/12/19 05:03:26;;;;;;;7.43;4.87;;;;;;;-1.98;100.00;99290.03;1654829;86;21002;-78
2021/12/19 05:16:28;;;;;;;7.30;4.00;;;;;;;-1.82;100.00;99258.47;1656953;85;21022;-78
2021/12/19 05:19:02;;;;;;;6.43;4.30;;;;;;;-1.83;100.00;99281.45;1630401;88;21019;-78
2021/12/19 05:21:26;;;;;;;7.07;4.00;;;;;;;-1.83;100.00;99262.06;1626746;88;21200;-78
2021/12/19 05:26:24;;;;;;;5.35;3.35;;;;;;;-1.82;100.00;99253.17;1629492;87;21090;-77
2021/12/19 05:28:52;;;;;;;6.10;3.97;;;;;;;-1.79;100.00;99246.30;1687053;85;21031;-79
2021/12/19 05:31:20;;;;;;;4.37;3.47;;;;;;;-1.77;100.00;99242.59;1687611;85;21070;-79
2021/12/19 05:33:47;;;;;;;12.07;5.80;;;;;;;-1.75;100.00;99240.67;1742786;82;20940;-81
2021/12/19 05:46:41;;;;;;;5.57;3.90;;;;;;;-1.77;100.00;99221.39;1739578;82;20096;-83
2021/12/19 05:49:08;;;;;;;5.93;3.80;;;;;;;-1.78;100.00;99195.83;1739712;83;21007;-80
2021/12/19 05:51:36;;;;;;;4.60;3.70;;;;;;;-1.79;100.00;99201.24;1739961;82;20987;-83
2021/12/19 05:54:03;;;;;;;5.60;4.20;;;;;;;-1.79;100.00;99193.29;1739816;82;21520;-87
2021/12/19 05:56:31;;;;;;;6.90;4.13;;;;;;;-1.77;100.00;99177.66;1740048;83;20963;-83
2021/12/19 05:58:58;;;;;;;7.63;4.07;;;;;;;-1.75;100.00;99180.20;1739809;82;21047;-82
2021/12/19 06:01:26;;;;;;;6.97;4.80;;;;;;;-1.73;100.00;99171.65;1739761;83;20956;-82
2021/12/19 06:03:52;;;;;;;6.13;4.00;;;;;;;-1.73;100.00;99164.53;1739635;83;20984;-82
2021/12/19 06:06:19;;;;;;;6.30;4.10;;;;;;;-1.70;100.00;99156.81;1739652;82;20967;-82
2021/12/19 06:08:48;;;;;;;5.43;3.87;;;;;;;-1.69;100.00;99152.38;1740007;82;21063;-81
2021/12/19 06:11:16;;;;;;;6.23;3.83;;;;;;;-1.70;100.00;99144.89;1739876;82;20983;-82
2021/12/19 06:13:43;;;;;;;6.37;4.13;;;;;;;-1.69;100.00;99151.89;1739963;82;21007;-83
2021/12/19 06:16:10;;;;;;;6.90;3.83;;;;;;;-1.69;100.00;99156.36;1739947;82;21429;-82
2021/12/19 06:18:37;;;;;;;7.30;3.60;;;;;;;-1.69;100.00;99147.92;1739540;82;21015;-82
2021/12/19 06:21:05;;;;;;;6.63;3.60;;;;;;;-1.68;100.00;99125.77;1717998;82;20995;-77
2021/12/19 06:23:33;;;;;;;7.53;4.17;;;;;;;-1.65;100.00;99124.67;1739936;82;21478;-84
2021/12/19 06:26:00;;;;;;;9.17;4.20;;;;;;;-1.62;100.00;99121.80;1739903;82;20943;-81
2021/12/19 06:28:27;;;;;;;8.47;4.10;;;;;;;-1.61;100.00;99126.99;1718801;82;21015;-80
2021/12/19 06:30:54;;;;;;;6.30;4.20;;;;;;;-1.59;100.00;99120.25;1739552;82;20983;-82
2021/12/19 06:33:23;;;;;;;5.07;3.60;;;;;;;-1.55;100.00;99114.58;1739737;82;21478;-82
2021/12/19 06:35:50;;;;;;;3.93;3.43;;;;;;;-1.54;100.00;99117.61;1739439;82;20935;-73
2021/12/19 06:38:17;;;;;;;6.27;3.70;;;;;;;-1.51;100.00;99100.61;1747531;82;21014;-71
2021/12/19 06:40:44;;;;;;;5.17;3.60;;;;;;;-1.50;100.00;99120.03;1748375;82;21007;-73
2021/12/19 06:43:10;;;;;;;5.13;3.67;;;;;;;-1.49;100.00;99104.47;1748429;82;21018;-77
2021/12/19 06:45:38;;;;;;;6.57;3.77;;;;;;;-1.50;100.00;99098.34;1748701;82;21461;-81
2021/12/19 06:48:05;;;;;;;6.43;4.20;;;;;;;-1.49;100.00;99089.89;1748739;82;21005;-79
2021/12/19 06:50:32;;;;;;;6.10;3.73;;;;;;;-1.48;100.00;99084.47;1748941;82;21050;-78
2021/12/19 06:52:58;;;;;;;6.60;4.30;;;;;;;-1.47;100.00;99078.67;1748566;82;20991;-78
2021/12/19 06:55:25;;;;;;;6.10;3.93;;;;;;;-1.51;100.00;99072.77;1748812;81;21097;-77
2021/12/19 06:57:52;;;;;;;7.03;4.40;;;;;;;-1.53;100.00;99075.53;1749467;82;20999;-78
2021/12/19 07:00:24;;;;;;;5.27;4.27;;;;;;;-1.54;100.00;99069.88;1747101;81;20952;-79
2021/12/19 07:02:54;;;;;;;8.38;5.10;;;;;;;-1.54;100.00;99055.77;1747748;82;21002;-77
2021/12/19 07:05:20;;;;;;;7.37;4.63;;;;;;;-1.53;100.00;99055.65;1749632;82;21035;-79
2021/12/19 07:07:47;;;;;;;10.57;5.80;;;;;;;-1.50;100.00;99059.89;1728784;82;20995;-78
2021/12/19 07:10:20;;;;;;;12.47;6.80;;;;;;;-1.49;100.00;99044.81;1722058;83;21136;-77
2021/12/19 07:12:47;;;;;;;11.37;6.77;;;;;;;-1.48;100.00;99043.86;1722149;83;21505;-78
2021/12/19 07:15:18;;;;;;;12.47;6.70;;;;;;;-1.49;100.00;99045.65;1722133;83;21031;-78
2021/12/19 07:17:46;;;;;;;12.47;6.95;;;;;;;-1.47;100.00;99051.70;1722521;83;21034;-79
2021/12/19 07:20:14;;;;;;;16.40;8.43;;;;;;;-1.47;100.00;99046.40;1722378;83;21034;-79
2021/12/19 07:22:42;;;;;;;13.07;7.07;;;;;;;-1.47;100.00;99041.09;1722354;83;21010;-79
2021/12/19 07:25:09;;;;;;;13.50;7.47;;;;;;;-1.44;100.00;99034.20;1722109;83;21535;-80
2021/12/19 07:27:36;;;;;;;13.27;7.40;;;;;;;-1.39;100.00;99024.58;1730526;82;20988;-78
2021/12/19 07:30:05;;;;;;;11.87;7.27;;;;;;;-1.39;100.00;99021.44;1738015;83;21050;-79
2021/12/19 07:32:33;;;;;;;15.60;6.73;;;;;;;-1.37;100.00;99019.50;1738321;82;21007;-82
2021/12/19 07:35:00;;;;;;;12.70;6.70;;;;;;;-1.36;100.00;99003.97;1738025;83;21035;-80
2021/12/19 07:37:27;;;;;;;13.70;6.80;;;;;;;-1.32;100.00;99011.20;1715248;83;21070;-79
2021/12/19 07:40:11;;;;;;;14.23;6.77;;;;;;;-1.31;100.00;99012.03;1737642;83;20999;-79
2021/12/19 07:42:28;;;;;;;10.47;6.27;;;;;;;-1.29;100.00;99011.42;1738531;82;20972;-78
2021/12/19 07:44:55;;;;;;;11.07;6.17;;;;;;;-1.29;100.00;99014.08;1738115;83;21489;-79
2021/12/19 07:47:21;;;;;;;12.57;6.50;;;;;;;-1.26;100.00;99020.47;1738139;83;21464;-78
2021/12/19 07:49:48;;;;;;;16.77;7.50;;;;;;;-1.27;100.00;99010.85;1738152;83;20999;-76
2021/12/19 07:52:15;;;;;;;11.07;6.23;;;;;;;-1.25;100.00;99019.52;1738048;82;21027;-78
2021/12/19 07:54:43;;;;;;;11.33;6.30;;;;;;;-1.25;100.00;99007.59;1737678;82;21066;-78
2021/12/19 07:57:09;;;;;;;10.60;5.67;;;;;;;-1.21;100.00;99015.16;1726217;83;20979;-79
2021/12/19 07:59:37;;;;;;;9.97;5.50;;;;;;;-1.20;100.00;99002.77;1726335;82;20999;-78
2021/12/19 08:02:04;;;;;;;9.67;5.07;;;;;;;-1.20;100.00;99006.75;1726674;82;21018;-80
2021/12/19 08:04:33;;;;;;;8.70;5.93;;;;;;;-1.20;100.00;98965.14;1726182;82;20995;-78
2021/12/19 08:06:59;;;;;;;10.20;5.40;;;;;;;-1.22;100.00;98984.31;1726237;82;21011;-80
2021/12/19 08:09:39;;;;;;;7.83;5.30;;;;;;;-1.21;100.00;98976.70;1726075;82;21019;-79
2021/12/19 08:12:06;;;;;;;11.57;6.20;;;;;;;-1.21;100.00;98984.66;1726054;82;20999;-79
2021/12/19 08:14:33;;;;;;;9.70;5.50;;;;;;;-1.20;100.00;98974.42;1726130;83;21567;-73
2021/12/19 08:17:00;;;;;;;8.83;5.37;;;;;;;-1.19;100.00;98956.23;1726469;83;20940;-79
2021/12/19 08:19:28;;;;;;;9.17;4.60;;;;;;;-1.19;100.00;98959.34;1726543;83;21006;-77
2021/12/19 08:21:55;;;;;;;6.73;4.57;;;;;;;-1.19;100.00;98961.53;1726273;83;21484;-79
2021/12/19 08:24:22;;;;;;;8.27;5.17;;;;;;;-1.17;100.00;98938.38;1726361;83;21002;-79
2021/12/19 08:26:49;;;;;;;8.53;4.77;;;;;;;-1.17;100.00;98948.98;1728730;82;20967;-80
2021/12/19 08:29:18;;;;;;;11.30;6.27;;;;;;;-1.16;100.00;98927.27;1738328;82;20999;-83
2021/12/19 08:31:45;;;;;;;19.20;8.00;;;;;;;-1.13;100.00;98911.11;1738893;83;20987;-78
2021/12/19 08:34:12;;;;;;;32.37;11.70;;;;;;;-1.11;100.00;98908.34;1737826;83;21039;-77
2021/12/19 08:36:39;;;;;;;17.37;7.17;;;;;;;-1.08;100.00;98910.72;1738617;82;21022;-80
2021/12/19 08:39:07;;;;;;;28.03;10.80;;;;;;;-1.06;100.00;98899.03;1741397;82;20971;-78
2021/12/19 08:41:34;;;;;;;23.30;8.67;;;;;;;-1.04;100.00;98898.41;1740823;82;20979;-78
2021/12/19 08:44:01;;;;;;;21.77;7.80;;;;;;;-1.02;100.00;98904.93;1741313;82;21035;-79
2021/12/19 08:46:28;;;;;;;23.33;9.13;;;;;;;-0.99;100.00;98898.05;1741510;82;21023;-82
2021/12/19 08:48:54;;;;;;;14.37;5.70;;;;;;;-1.00;100.00;98892.38;1741341;82;20995;-79
2021/12/19 08:51:21;;;;;;;30.27;12.77;;;;;;;-0.99;100.00;98889.59;1741230;81;20983;-80
2021/12/19 08:53:48;;;;;;;16.47;8.20;;;;;;;-0.96;100.00;98877.88;1744788;81;20987;-80
2021/12/19 08:56:15;;;;;;;9.53;4.97;;;;;;;-0.95;100.00;98887.53;1739653;82;21030;-81
2021/12/19 08:58:42;;;;;;;9.67;4.93;;;;;;;-0.95;100.00;98867.63;1737881;83;21505;-80
2021/12/19 09:01:10;;;;;;;9.17;4.90;;;;;;;-0.91;100.00;98848.31;1705819;84;21023;-80
2021/12/19 09:03:37;;;;;;;6.60;4.00;;;;;;;-0.91;100.00;98845.66;1738568;83;20976;-82
2021/12/19 09:06:04;;;;;;;6.37;3.97;;;;;;;-0.89;100.00;98843.72;1738950;83;20999;-81
2021/12/19 09:08:31;;;;;;;20.30;8.97;;;;;;;-0.87;100.00;98836.47;1738903;82;20979;-78
2021/12/19 09:10:59;;;;;;;12.80;6.30;;;;;;;-0.86;100.00;98830.20;1738638;82;20975;-81
2021/12/19 09:13:26;;;;;;;6.83;4.37;;;;;;;-0.83;100.00;98818.02;1738872;83;21047;-82
2021/12/19 09:15:53;;;;;;;6.80;4.10;;;;;;;-0.82;100.00;98814.37;1738858;83;20984;-80
2021/12/19 09:18:31;;;;;;;7.43;4.10;;;;;;;-0.79;100.00;98814.12;1738808;82;21039;-76
2021/12/19 09:20:58;;;;;;;7.10;4.37;;;;;;;-0.78;100.00;98780.81;1739348;82;21382;-80
2021/12/19 09:23:27;;;;;;;5.70;3.87;;;;;;;-0.76;100.00;98795.29;1739129;83;21027;-81
2021/12/19 09:25:56;;;;;;;7.63;4.00;;;;;;;-0.73;100.00;98784.88;1738972;82;20952;-83
2021/12/19 09:28:24;;;;;;;7.20;4.07;;;;;;;-0.71;100.00;98769.16;1726508;82;21030;-80
2021/12/19 09:30:51;;;;;;;6.17;3.73;;;;;;;-0.70;100.00;98768.70;1751476;82;20991;-79
2021/12/19 09:33:20;;;;;;;6.53;4.07;;;;;;;-0.67;100.00;98756.50;1752322;82;21003;-80
2021/12/19 09:35:46;;;;;;;9.33;4.60;;;;;;;-0.66;100.00;98755.52;1752188;82;20978;-81
2021/12/19 09:38:14;;;;;;;11.87;5.00;;;;;;;-0.62;100.00;98739.66;1753348;80;21014;-80
2021/12/19 09:40:43;;;;;;;7.07;4.50;;;;;;;-0.61;100.00;98740.86;1753523;82;21031;-79
2021/12/19 09:43:31;;;;;;;10.47;5.37;;;;;;;-0.59;100.00;98736.26;1754295;82;20975;-79
2021/12/19 09:45:40;;;;;;;8.63;4.73;;;;;;;-0.58;100.00;98750.40;1752906;82;21000;-80
2021/12/19 09:48:08;;;;;;;20.07;7.23;;;;;;;-0.59;100.00;98736.75;1754210;82;21018;-83
2021/12/19 09:50:35;;;;;;;31.43;13.43;;;;;;;-0.59;100.00;98734.09;1754154;82;21535;-81
2021/12/19 09:53:02;;;;;;;19.20;8.20;;;;;;;-0.59;100.00;98743.39;1753768;82;21003;-79
2021/12/19 09:55:30;;;;;;;20.40;8.40;;;;;;;-0.58;100.00;98722.02;1753798;82;21043;-80
2021/12/19 09:58:00;;;;;;;22.47;8.87;;;;;;;-0.59;100.00;98719.00;1754281;82;20956;-76
2021/12/19 10:00:28;;;;;;;14.07;6.83;;;;;;;-0.58;100.00;98708.75;1753961;82;20975;-79
2021/12/19 10:02:55;;;;;;;7.87;4.43;;;;;;;-0.60;100.00;98693.44;1754381;82;21045;-76
2021/12/19 10:05:26;;;;;;;10.60;5.03;;;;;;;-0.57;100.00;98692.31;1757354;82;21038;-81
2021/12/19 10:08:00;;;;;;;10.25;5.20;;;;;;;-0.56;100.00;98668.79;1757660;82;20983;-80
2021/12/19 10:10:47;;;;;;;7.85;5.05;;;;;;;-0.56;100.00;98667.95;1710757;83;21007;-79
2021/12/19 10:13:13;;;;;;;10.20;5.30;;;;;;;-0.55;100.00;98660.33;1706637;83;21011;-77
2021/12/19 10:15:42;;;;;;;7.30;4.93;;;;;;;-0.54;100.00;98658.87;1710525;83;21015;-81
2021/12/19 10:18:15;;;;;;;10.60;5.50;;;;;;;-0.53;100.00;98652.59;1682075;85;21047;-81
2021/12/19 10:20:53;;;;;;;13.07;5.67;;;;;;;-0.50;100.00;98640.85;1710078;83;21452;-79
2021/12/19 10:23:25;;;;;;;10.03;6.17;;;;;;;-0.47;100.00;98640.59;1708719;83;21497;-79
2021/12/19 10:26:01;;;;;;;10.75;6.20;;;;;;;-0.46;100.00;98631.63;1709167;83;21051;-78
2021/12/19 10:28:29;;;;;;;16.60;8.40;;;;;;;-0.46;100.00;98624.53;1690242;83;21508;-75
2021/12/19 10:30:58;;;;;;;13.80;7.57;;;;;;;-0.45;100.00;98608.09;1687482;85;20993;-76
2021/12/19 10:33:31;;;;;;;14.00;7.83;;;;;;;-0.44;100.00;98617.75;1687673;85;21029;-81
2021/12/19 10:36:01;;;;;;;13.68;8.03;;;;;;;-0.44;100.00;98613.77;1687871;85;21018;-78
2021/12/19 10:38:36;;;;;;;17.00;9.30;;;;;;;-0.43;100.00;98598.17;1671306;84;21014;-79
2021/12/19 10:41:25;;;;;;;16.63;9.43;;;;;;;-0.43;100.00;98590.20;1640710;86;21104;-78
2021/12/19 10:44:03;;;;;;;15.90;7.80;;;;;;;-0.44;100.00;98558.83;1639228;87;21053;-79
2021/12/19 10:46:35;;;;;;;13.37;7.47;;;;;;;-0.44;100.00;98553.52;1636241;87;21069;-82
2021/12/19 10:49:02;;;;;;;14.23;7.90;;;;;;;-0.43;100.00;98551.70;1639238;87;21487;-78
2021/12/19 10:51:33;;;;;;;14.73;8.13;;;;;;;-0.44;100.00;98542.90;1639213;87;21045;-79
2021/12/19 10:54:00;;;;;;;20.97;10.40;;;;;;;-0.43;100.00;98524.64;1639232;87;21060;-76
2021/12/19 10:56:30;;;;;;;27.73;13.37;;;;;;;-0.43;100.00;98514.52;1635459;87;21054;-78
2021/12/19 10:59:00;;;;;;;23.27;10.80;;;;;;;-0.43;100.00;98518.00;1634713;88;21066;-81
2021/12/19 11:01:35;;;;;;;31.33;14.27;;;;;;;-0.40;100.00;98506.28;1634349;88;21577;-78
2021/12/19 11:04:11;;;;;;;21.77;10.28;;;;;;;-0.40;100.00;98494.33;1585761;90;21100;-78
2021/12/19 11:06:53;;;;;;;26.80;12.30;;;;;;;-0.39;100.00;98478.27;1584661;90;21099;-78
2021/12/19 11:12:04;;;;;;;42.17;18.97;;;;;;;-0.33;100.00;98480.84;1490265;96;21062;-77
2021/12/19 11:14:44;;;;;;;52.20;22.30;;;;;;;-0.34;100.00;98461.05;1442819;99;21110;-80
2021/12/19 11:17:22;;;;;;;42.10;19.50;;;;;;;-0.31;100.00;98452.81;1462435;93;21131;-78
2021/12/19 11:19:54;;;;;;;34.80;15.70;;;;;;;-0.30;100.00;98447.83;1462331;98;21611;-77
2021/12/19 11:22:28;;;;;;;29.23;14.43;;;;;;;-0.28;100.00;98458.69;1420337;101;21113;-79
2021/12/19 11:25:02;;;;;;;19.67;10.37;;;;;;;-0.26;100.00;98455.89;1420373;101;21667;-81
2021/12/19 11:27:29;;;;;;;16.55;9.45;;;;;;;-0.25;100.00;98458.88;1410460;101;21165;-75
2021/12/19 11:29:57;;;;;;;25.10;14.40;;;;;;;-0.23;100.00;98440.97;1421601;101;21611;-76
2021/12/19 11:32:50;;;;;;;22.23;12.47;;;;;;;-0.22;100.00;98470.55;1421431;101;21638;-80
2021/12/19 11:35:23;;;;;;;16.37;9.03;;;;;;;-0.20;100.00;98448.67;1419073;101;21110;-76
2021/12/19 11:38:00;;;;;;;17.27;9.90;;;;;;;-0.17;100.00;98440.42;1437320;98;21099;-76
2021/12/19 11:40:35;;;;;;;15.53;8.27;;;;;;;-0.15;100.00;98425.17;1467152;97;21101;-74
2021/12/19 11:43:06;;;;;;;17.50;10.20;;;;;;;-0.13;100.00;98409.09;1466780;98;21122;-79
2021/12/19 11:45:46;;;;;;;;;;;;;;;-0.13;100.00;98445.79;1448014;98;21101;-79
2021/12/19 11:51:03;;;;;;;19.77;10.70;;;;;;;-0.12;100.00;98435.52;1375073;104;21180;-78
2021/12/19 11:53:37;;;;;;;20.03;10.30;;;;;;;-0.09;100.00;98445.02;1379072;104;21146;-78
2021/12/19 11:56:09;;;;;;;19.17;11.03;;;;;;;-0.08;100.00;98430.77;1377156;104;21629;-78
2021/12/19 11:58:57;;;;;;;19.92;11.30;;;;;;;-0.08;100.00;98427.61;1375500;104;21197;-80
2021/12/19 12:01:29;;;;;;;18.97;10.30;;;;;;;-0.07;100.00;98423.13;1373065;104;21623;-78
2021/12/19 12:04:03;;;;;;;18.27;10.67;;;;;;;-0.05;100.00;98421.19;1372448;105;21141;-76
2021/12/19 12:06:34;;;;;;;17.23;10.83;;;;;;;-0.03;100.00;98404.60;1372514;105;21131;-77
2021/12/19 12:12:07;;;;;;;18.43;10.67;;;;;;;-0.01;100.00;98395.49;1425280;96;21082;-78
2021/12/19 12:14:35;;;;;;;14.80;8.63;;;;;;;-0.02;100.00;98401.80;1425734;100;21169;-79
2021/12/19 12:17:21;;;;;;;19.17;10.40;;;;;;;0.01;100.00;98401.16;1426420;101;21134;-78
2021/12/19 12:19:55;;;;;;;17.27;9.67;;;;;;;-0.02;100.00;98403.14;1460720;98;21128;-80
2021/12/19 12:25:12;;;;;;;18.20;9.77;;;;;;;0.02;100.00;98386.41;1471453;98;21069;-79
2021/12/19 12:27:47;;;;;;;17.70;9.55;;;;;;;0.04;100.00;98391.59;1443359;98;21130;-80
2021/12/19 12:30:21;;;;;;;17.90;10.10;;;;;;;0.06;100.00;98386.45;1492667;95;21570;-78
2021/12/19 12:32:48;;;;;;;16.40;9.40;;;;;;;0.07;100.00;98381.50;1493189;96;21125;-78
2021/12/19 12:35:15;;;;;;;19.73;10.57;;;;;;;0.09;100.00;98361.39;1492880;96;21104;-77
2021/12/19 12:37:42;;;;;;;18.67;10.73;;;;;;;0.08;100.00;98363.23;1492014;96;21093;-79
2021/12/19 12:40:20;;;;;;;19.47;11.47;;;;;;;0.10;100.00;98381.69;1479239;97;21574;-80
2021/12/19 12:43:10;;;;;;;18.60;11.43;;;;;;;0.10;100.00;98357.27;1500312;95;21138;-81